sensor_id;sensor_type;location;lat;lon;timestamp;temperature;humidity
16674;DHT22;8450;52.654;10.326;2024-02-26T00:00:39;1.90;99.90
16674;DHT22;8450;52.654;10.326;2024-02-26T00:03:06;1.90;99.90
16674;DHT22;8450;52.654;10.326;2024-02-26T00:05:31;1.80;99.90
16674;DHT22;8450;52.654;10.326;2024-02-26T00:07:57;1.80;99.90
16674;DHT22;8450;52.654;10.326;2024-02-26T00:10:22;1.80;99.90
16674;DHT22;8450;52.654;10.326;2024-02-26T00:12:48;1.70;99.90
16674;DHT22;8450;52.654;10.326;2024-02-26T00:15:13;1.70;99.90
16674;DHT22;8450;52.654;10.326;2024-02-26T00:17:39;1.60;99.90
16674;DHT22;8450;52.654;10.326;2024-02-26T00:20:06;1.60;99.90
16674;DHT22;8450;52.654;10.326;2024-02-26T00:22:34;1.60;99.90
16674;DHT22;8450;52.654;10.326;2024-02-26T00:25:00;1.60;99.90
16674;DHT22;8450;52.654;10.326;2024-02-26T00:27:25;1.60;99.90
16674;DHT22;8450;52.654;10.326;2024-02-26T00:29:51;1.50;99.90
16674;DHT22;8450;52.654;10.326;2024-02-26T00:32:16;1.50;99.90
16674;DHT22;8450;52.654;10.326;2024-02-26T00:34:42;1.50;99.90
16674;DHT22;8450;52.654;10.326;2024-02-26T00:37:07;1.60;99.90
16674;DHT22;8450;52.654;10.326;2024-02-26T00:39:33;1.60;99.90
16674;DHT22;8450;52.654;10.326;2024-02-26T00:41:58;1.60;99.90
16674;DHT22;8450;52.654;10.326;2024-02-26T00:44:24;1.70;99.90
16674;DHT22;8450;52.654;10.326;2024-02-26T00:46:49;1.70;99.90
16674;DHT22;8450;52.654;10.326;2024-02-26T00:49:15;1.60;99.90
16674;DHT22;8450;52.654;10.326;2024-02-26T00:51:40;1.60;99.90
16674;DHT22;8450;52.654;10.326;2024-02-26T00:54:06;1.60;99.90
16674;DHT22;8450;52.654;10.326;2024-02-26T00:56:31;1.60;99.90
16674;DHT22;8450;52.654;10.326;2024-02-26T00:58:58;1.50;99.90
16674;DHT22;8450;52.654;10.326;2024-02-26T01:01:23;1.40;99.90
16674;DHT22;8450;52.654;10.326;2024-02-26T01:03:49;1.40;99.90
16674;DHT22;8450;52.654;10.326;2024-02-26T01:06:14;1.40;99.90
16674;DHT22;8450;52.654;10.326;2024-02-26T01:08:40;1.40;99.90
16674;DHT22;8450;52.654;10.326;2024-02-26T01:11:05;1.40;99.90
16674;DHT22;8450;52.654;10.326;2024-02-26T01:13:31;1.30;99.90
16674;DHT22;8450;52.654;10.326;2024-02-26T01:15:57;1.30;99.90
16674;DHT22;8450;52.654;10.326;2024-02-26T01:18:22;1.20;99.90
16674;DHT22;8450;52.654;10.326;2024-02-26T01:20:48;1.30;99.90
16674;DHT22;8450;52.654;10.326;2024-02-26T01:23:14;1.20;99.90
16674;DHT22;8450;52.654;10.326;2024-02-26T01:25:39;1.10;99.90
16674;DHT22;8450;52.654;10.326;2024-02-26T01:28:05;1.20;99.90
16674;DHT22;8450;52.654;10.326;2024-02-26T01:30:31;1.20;99.90
16674;DHT22;8450;52.654;10.326;2024-02-26T01:32:57;1.20;99.90
16674;DHT22;8450;52.654;10.326;2024-02-26T01:35:22;1.20;99.90
16674;DHT22;8450;52.654;10.326;2024-02-26T01:37:48;1.20;99.90
16674;DHT22;8450;52.654;10.326;2024-02-26T01:40:14;1.20;99.90
16674;DHT22;8450;52.654;10.326;2024-02-26T01:42:45;1.20;99.90
16674;DHT22;8450;52.654;10.326;2024-02-26T01:45:14;1.10;99.90
16674;DHT22;8450;52.654;10.326;2024-02-26T01:47:51;1.10;99.90
16674;DHT22;8450;52.654;10.326;2024-02-26T01:50:17;1.10;99.90
16674;DHT22;8450;52.654;10.326;2024-02-26T01:52:47;1.00;99.90
16674;DHT22;8450;52.654;10.326;2024-02-26T01:55:14;1.00;99.90
16674;DHT22;8450;52.654;10.326;2024-02-26T01:57:45;0.90;99.90
16674;DHT22;8450;52.654;10.326;2024-02-26T02:00:12;1.00;99.90
16674;DHT22;8450;52.654;10.326;2024-02-26T02:02:38;1.00;99.90
16674;DHT22;8450;52.654;10.326;2024-02-26T02:05:06;1.00;99.90
16674;DHT22;8450;52.654;10.326;2024-02-26T02:07:32;0.90;99.90
16674;DHT22;8450;52.654;10.326;2024-02-26T02:09:57;0.90;99.90
16674;DHT22;8450;52.654;10.326;2024-02-26T02:12:23;0.90;99.90
16674;DHT22;8450;52.654;10.326;2024-02-26T02:14:49;1.00;99.90
16674;DHT22;8450;52.654;10.326;2024-02-26T02:17:15;1.00;99.90
16674;DHT22;8450;52.654;10.326;2024-02-26T02:19:40;0.90;99.90
16674;DHT22;8450;52.654;10.326;2024-02-26T02:22:06;0.90;99.90
16674;DHT22;8450;52.654;10.326;2024-02-26T02:24:32;0.80;99.90
16674;DHT22;8450;52.654;10.326;2024-02-26T02:26:57;0.90;99.90
16674;DHT22;8450;52.654;10.326;2024-02-26T02:29:23;0.90;99.90
16674;DHT22;8450;52.654;10.326;2024-02-26T02:31:49;0.90;99.90
16674;DHT22;8450;52.654;10.326;2024-02-26T02:34:14;0.80;99.90
16674;DHT22;8450;52.654;10.326;2024-02-26T02:36:52;0.80;99.90
16674;DHT22;8450;52.654;10.326;2024-02-26T02:39:18;0.80;99.90
16674;DHT22;8450;52.654;10.326;2024-02-26T02:41:43;0.80;99.90
16674;DHT22;8450;52.654;10.326;2024-02-26T02:44:09;0.80;99.90
16674;DHT22;8450;52.654;10.326;2024-02-26T02:46:34;0.80;99.90
16674;DHT22;8450;52.654;10.326;2024-02-26T02:49:01;0.80;99.90
16674;DHT22;8450;52.654;10.326;2024-02-26T02:51:26;0.80;99.90
16674;DHT22;8450;52.654;10.326;2024-02-26T02:53:52;0.70;99.90
16674;DHT22;8450;52.654;10.326;2024-02-26T02:56:17;0.80;99.90
16674;DHT22;8450;52.654;10.326;2024-02-26T02:58:43;0.70;99.90
16674;DHT22;8450;52.654;10.326;2024-02-26T03:01:08;0.70;99.90
16674;DHT22;8450;52.654;10.326;2024-02-26T03:03:34;0.70;99.90
16674;DHT22;8450;52.654;10.326;2024-02-26T03:06:01;0.70;99.90
16674;DHT22;8450;52.654;10.326;2024-02-26T03:08:26;0.70;99.90
16674;DHT22;8450;52.654;10.326;2024-02-26T03:10:52;0.70;99.90
16674;DHT22;8450;52.654;10.326;2024-02-26T03:13:17;0.70;99.90
16674;DHT22;8450;52.654;10.326;2024-02-26T03:15:43;0.70;99.90
16674;DHT22;8450;52.654;10.326;2024-02-26T03:18:08;0.60;99.90
16674;DHT22;8450;52.654;10.326;2024-02-26T03:20:34;0.70;99.90
16674;DHT22;8450;52.654;10.326;2024-02-26T03:23:00;0.60;99.90
16674;DHT22;8450;52.654;10.326;2024-02-26T03:25:25;0.70;99.90
16674;DHT22;8450;52.654;10.326;2024-02-26T03:27:51;0.70;99.90
16674;DHT22;8450;52.654;10.326;2024-02-26T03:30:16;0.70;99.90
16674;DHT22;8450;52.654;10.326;2024-02-26T03:32:42;0.70;99.90
16674;DHT22;8450;52.654;10.326;2024-02-26T03:35:08;0.70;99.90
16674;DHT22;8450;52.654;10.326;2024-02-26T03:37:33;0.70;99.90
16674;DHT22;8450;52.654;10.326;2024-02-26T03:39:59;0.70;99.90
16674;DHT22;8450;52.654;10.326;2024-02-26T03:42:26;0.70;99.90
16674;DHT22;8450;52.654;10.326;2024-02-26T03:44:52;0.70;99.90
16674;DHT22;8450;52.654;10.326;2024-02-26T03:47:17;0.70;99.90
16674;DHT22;8450;52.654;10.326;2024-02-26T03:49:43;0.70;99.90
16674;DHT22;8450;52.654;10.326;2024-02-26T03:52:08;0.70;99.90
16674;DHT22;8450;52.654;10.326;2024-02-26T03:54:34;0.70;99.90
16674;DHT22;8450;52.654;10.326;2024-02-26T03:56:59;0.70;99.90
16674;DHT22;8450;52.654;10.326;2024-02-26T03:59:26;0.70;99.90
16674;DHT22;8450;52.654;10.326;2024-02-26T04:01:51;0.70;99.90
16674;DHT22;8450;52.654;10.326;2024-02-26T04:04:17;0.70;99.90
16674;DHT22;8450;52.654;10.326;2024-02-26T04:06:47;0.60;99.90
16674;DHT22;8450;52.654;10.326;2024-02-26T04:09:16;0.60;99.90
16674;DHT22;8450;52.654;10.326;2024-02-26T04:11:41;0.60;99.90
16674;DHT22;8450;52.654;10.326;2024-02-26T04:14:08;0.60;99.90
16674;DHT22;8450;52.654;10.326;2024-02-26T04:16:36;0.70;99.90
16674;DHT22;8450;52.654;10.326;2024-02-26T04:19:02;0.70;99.90
16674;DHT22;8450;52.654;10.326;2024-02-26T04:21:28;0.70;99.90
16674;DHT22;8450;52.654;10.326;2024-02-26T04:23:53;0.70;99.90
16674;DHT22;8450;52.654;10.326;2024-02-26T04:26:21;0.70;99.90
16674;DHT22;8450;52.654;10.326;2024-02-26T04:28:47;0.60;99.90
16674;DHT22;8450;52.654;10.326;2024-02-26T04:31:13;0.60;99.90
16674;DHT22;8450;52.654;10.326;2024-02-26T04:33:38;0.60;99.90
16674;DHT22;8450;52.654;10.326;2024-02-26T04:36:04;0.50;99.90
16674;DHT22;8450;52.654;10.326;2024-02-26T04:38:30;0.50;99.90
16674;DHT22;8450;52.654;10.326;2024-02-26T04:40:55;0.60;99.90
16674;DHT22;8450;52.654;10.326;2024-02-26T04:43:21;0.50;99.90
16674;DHT22;8450;52.654;10.326;2024-02-26T04:45:46;0.50;99.90
16674;DHT22;8450;52.654;10.326;2024-02-26T04:48:12;0.50;99.90
16674;DHT22;8450;52.654;10.326;2024-02-26T04:50:37;0.50;99.90
16674;DHT22;8450;52.654;10.326;2024-02-26T04:53:03;0.50;99.90
16674;DHT22;8450;52.654;10.326;2024-02-26T04:55:28;0.50;99.90
16674;DHT22;8450;52.654;10.326;2024-02-26T04:57:54;0.50;99.90
16674;DHT22;8450;52.654;10.326;2024-02-26T05:00:20;0.50;99.90
16674;DHT22;8450;52.654;10.326;2024-02-26T05:02:45;0.60;99.90
16674;DHT22;8450;52.654;10.326;2024-02-26T05:05:11;0.60;99.90
16674;DHT22;8450;52.654;10.326;2024-02-26T05:07:41;0.60;99.90
16674;DHT22;8450;52.654;10.326;2024-02-26T05:10:10;0.60;99.90
16674;DHT22;8450;52.654;10.326;2024-02-26T05:12:36;0.60;99.90
16674;DHT22;8450;52.654;10.326;2024-02-26T05:15:02;0.60;99.90
16674;DHT22;8450;52.654;10.326;2024-02-26T05:17:28;0.60;99.90
16674;DHT22;8450;52.654;10.326;2024-02-26T05:19:54;0.60;99.90
16674;DHT22;8450;52.654;10.326;2024-02-26T05:22:20;0.60;99.90
16674;DHT22;8450;52.654;10.326;2024-02-26T05:24:45;0.70;99.90
16674;DHT22;8450;52.654;10.326;2024-02-26T05:27:11;0.60;99.90
16674;DHT22;8450;52.654;10.326;2024-02-26T05:29:37;0.70;99.90
16674;DHT22;8450;52.654;10.326;2024-02-26T05:32:04;0.70;99.90
16674;DHT22;8450;52.654;10.326;2024-02-26T05:34:30;0.70;99.90
16674;DHT22;8450;52.654;10.326;2024-02-26T05:36:55;0.70;99.90
16674;DHT22;8450;52.654;10.326;2024-02-26T05:39:21;0.70;99.90
16674;DHT22;8450;52.654;10.326;2024-02-26T05:41:47;0.80;99.90
16674;DHT22;8450;52.654;10.326;2024-02-26T05:44:12;0.80;99.90
16674;DHT22;8450;52.654;10.326;2024-02-26T05:46:38;0.80;99.90
16674;DHT22;8450;52.654;10.326;2024-02-26T05:49:03;0.80;99.90
16674;DHT22;8450;52.654;10.326;2024-02-26T05:51:29;0.80;99.90
16674;DHT22;8450;52.654;10.326;2024-02-26T05:53:54;0.80;99.90
16674;DHT22;8450;52.654;10.326;2024-02-26T05:56:23;0.80;99.90
16674;DHT22;8450;52.654;10.326;2024-02-26T05:58:48;0.80;99.90
16674;DHT22;8450;52.654;10.326;2024-02-26T06:01:16;0.80;99.90
16674;DHT22;8450;52.654;10.326;2024-02-26T06:03:42;0.90;99.90
16674;DHT22;8450;52.654;10.326;2024-02-26T06:06:08;0.90;99.90
16674;DHT22;8450;52.654;10.326;2024-02-26T06:08:33;1.00;99.90
16674;DHT22;8450;52.654;10.326;2024-02-26T06:10:59;1.00;99.90
16674;DHT22;8450;52.654;10.326;2024-02-26T06:13:24;1.00;99.90
16674;DHT22;8450;52.654;10.326;2024-02-26T06:15:50;1.00;99.90
16674;DHT22;8450;52.654;10.326;2024-02-26T06:18:16;1.00;99.90
16674;DHT22;8450;52.654;10.326;2024-02-26T06:20:41;1.10;99.90
16674;DHT22;8450;52.654;10.326;2024-02-26T06:23:07;1.10;99.90
16674;DHT22;8450;52.654;10.326;2024-02-26T06:25:32;1.10;99.90
16674;DHT22;8450;52.654;10.326;2024-02-26T06:27:58;1.10;99.90
16674;DHT22;8450;52.654;10.326;2024-02-26T06:30:24;1.30;99.90
16674;DHT22;8450;52.654;10.326;2024-02-26T06:32:49;1.20;99.90
16674;DHT22;8450;52.654;10.326;2024-02-26T06:35:15;1.30;99.90
16674;DHT22;8450;52.654;10.326;2024-02-26T06:37:40;1.30;99.90
16674;DHT22;8450;52.654;10.326;2024-02-26T06:40:06;1.30;99.90
16674;DHT22;8450;52.654;10.326;2024-02-26T06:42:32;1.30;99.90
16674;DHT22;8450;52.654;10.326;2024-02-26T06:44:58;1.30;99.90
16674;DHT22;8450;52.654;10.326;2024-02-26T06:47:24;1.30;99.90
16674;DHT22;8450;52.654;10.326;2024-02-26T06:49:49;1.40;99.90
16674;DHT22;8450;52.654;10.326;2024-02-26T06:52:15;1.50;99.90
16674;DHT22;8450;52.654;10.326;2024-02-26T06:54:40;1.50;99.90
16674;DHT22;8450;52.654;10.326;2024-02-26T06:57:06;1.50;99.90
16674;DHT22;8450;52.654;10.326;2024-02-26T06:59:32;1.50;99.90
16674;DHT22;8450;52.654;10.326;2024-02-26T07:01:58;1.60;99.90
16674;DHT22;8450;52.654;10.326;2024-02-26T07:04:23;1.70;99.90
16674;DHT22;8450;52.654;10.326;2024-02-26T07:06:49;1.60;99.90
16674;DHT22;8450;52.654;10.326;2024-02-26T07:09:14;1.60;99.90
16674;DHT22;8450;52.654;10.326;2024-02-26T07:11:41;1.60;99.90
16674;DHT22;8450;52.654;10.326;2024-02-26T07:14:09;1.60;99.90
16674;DHT22;8450;52.654;10.326;2024-02-26T07:16:35;1.70;99.90
16674;DHT22;8450;52.654;10.326;2024-02-26T07:19:00;1.70;99.90
16674;DHT22;8450;52.654;10.326;2024-02-26T07:21:26;1.70;99.90
16674;DHT22;8450;52.654;10.326;2024-02-26T07:23:52;1.70;99.90
16674;DHT22;8450;52.654;10.326;2024-02-26T07:26:17;1.70;99.90
16674;DHT22;8450;52.654;10.326;2024-02-26T07:28:44;1.70;99.90
16674;DHT22;8450;52.654;10.326;2024-02-26T07:31:10;1.80;99.90
16674;DHT22;8450;52.654;10.326;2024-02-26T07:33:35;1.80;99.90
16674;DHT22;8450;52.654;10.326;2024-02-26T07:36:01;1.80;99.90
16674;DHT22;8450;52.654;10.326;2024-02-26T07:38:27;1.80;99.90
16674;DHT22;8450;52.654;10.326;2024-02-26T07:40:53;1.90;99.90
16674;DHT22;8450;52.654;10.326;2024-02-26T07:43:18;1.90;99.90
16674;DHT22;8450;52.654;10.326;2024-02-26T07:45:44;1.90;99.90
16674;DHT22;8450;52.654;10.326;2024-02-26T07:48:09;1.90;99.90
16674;DHT22;8450;52.654;10.326;2024-02-26T07:50:35;2.00;99.90
16674;DHT22;8450;52.654;10.326;2024-02-26T07:53:00;2.00;99.90
16674;DHT22;8450;52.654;10.326;2024-02-26T07:55:26;2.00;99.90
16674;DHT22;8450;52.654;10.326;2024-02-26T07:57:51;2.10;99.90
16674;DHT22;8450;52.654;10.326;2024-02-26T08:00:17;2.10;99.90
16674;DHT22;8450;52.654;10.326;2024-02-26T08:02:43;2.20;99.90
16674;DHT22;8450;52.654;10.326;2024-02-26T08:05:09;2.30;99.90
16674;DHT22;8450;52.654;10.326;2024-02-26T08:07:35;2.20;99.90
16674;DHT22;8450;52.654;10.326;2024-02-26T08:10:00;2.30;99.90
16674;DHT22;8450;52.654;10.326;2024-02-26T08:12:26;2.40;99.90
16674;DHT22;8450;52.654;10.326;2024-02-26T08:14:51;2.40;99.90
16674;DHT22;8450;52.654;10.326;2024-02-26T08:17:17;2.40;99.90
16674;DHT22;8450;52.654;10.326;2024-02-26T08:19:43;2.40;99.90
16674;DHT22;8450;52.654;10.326;2024-02-26T08:22:08;2.40;99.90
16674;DHT22;8450;52.654;10.326;2024-02-26T08:24:35;2.50;99.90
16674;DHT22;8450;52.654;10.326;2024-02-26T08:27:01;2.60;99.90
16674;DHT22;8450;52.654;10.326;2024-02-26T08:29:26;2.70;99.90
16674;DHT22;8450;52.654;10.326;2024-02-26T08:31:52;2.60;99.90
16674;DHT22;8450;52.654;10.326;2024-02-26T08:34:17;2.80;99.90
16674;DHT22;8450;52.654;10.326;2024-02-26T08:36:43;2.80;99.90
16674;DHT22;8450;52.654;10.326;2024-02-26T08:39:09;2.80;99.90
16674;DHT22;8450;52.654;10.326;2024-02-26T08:41:35;2.80;99.90
16674;DHT22;8450;52.654;10.326;2024-02-26T08:44:01;2.90;99.90
16674;DHT22;8450;52.654;10.326;2024-02-26T08:46:26;2.90;99.90
16674;DHT22;8450;52.654;10.326;2024-02-26T08:48:52;2.90;99.90
16674;DHT22;8450;52.654;10.326;2024-02-26T08:51:17;2.90;99.90
16674;DHT22;8450;52.654;10.326;2024-02-26T08:53:43;3.00;99.90
16674;DHT22;8450;52.654;10.326;2024-02-26T08:56:08;3.00;99.90
16674;DHT22;8450;52.654;10.326;2024-02-26T08:58:34;3.10;99.90
16674;DHT22;8450;52.654;10.326;2024-02-26T09:00:59;3.20;99.90
16674;DHT22;8450;52.654;10.326;2024-02-26T09:03:25;3.20;99.90
16674;DHT22;8450;52.654;10.326;2024-02-26T09:05:51;3.20;99.90
16674;DHT22;8450;52.654;10.326;2024-02-26T09:08:17;3.20;99.90
16674;DHT22;8450;52.654;10.326;2024-02-26T09:10:42;3.40;99.90
16674;DHT22;8450;52.654;10.326;2024-02-26T09:13:08;3.40;99.90
16674;DHT22;8450;52.654;10.326;2024-02-26T09:15:33;3.50;99.90
16674;DHT22;8450;52.654;10.326;2024-02-26T09:17:59;3.60;99.90
16674;DHT22;8450;52.654;10.326;2024-02-26T09:20:24;3.60;99.90
16674;DHT22;8450;52.654;10.326;2024-02-26T09:22:50;3.60;99.90
16674;DHT22;8450;52.654;10.326;2024-02-26T09:25:17;3.70;99.90
16674;DHT22;8450;52.654;10.326;2024-02-26T09:27:43;3.70;99.90
16674;DHT22;8450;52.654;10.326;2024-02-26T09:30:13;3.80;99.90
16674;DHT22;8450;52.654;10.326;2024-02-26T09:32:40;3.90;99.90
16674;DHT22;8450;52.654;10.326;2024-02-26T09:35:06;3.80;99.90
16674;DHT22;8450;52.654;10.326;2024-02-26T09:37:32;3.80;99.90
16674;DHT22;8450;52.654;10.326;2024-02-26T09:39:58;4.00;99.90
16674;DHT22;8450;52.654;10.326;2024-02-26T09:42:26;4.00;99.90
16674;DHT22;8450;52.654;10.326;2024-02-26T09:44:54;4.10;99.90
16674;DHT22;8450;52.654;10.326;2024-02-26T09:47:28;4.10;99.90
16674;DHT22;8450;52.654;10.326;2024-02-26T09:49:56;4.10;99.90
16674;DHT22;8450;52.654;10.326;2024-02-26T09:52:23;4.30;99.90
16674;DHT22;8450;52.654;10.326;2024-02-26T09:54:49;4.30;99.90
16674;DHT22;8450;52.654;10.326;2024-02-26T09:57:16;4.30;99.90
16674;DHT22;8450;52.654;10.326;2024-02-26T09:59:43;4.30;99.90
16674;DHT22;8450;52.654;10.326;2024-02-26T10:02:11;4.40;99.90
16674;DHT22;8450;52.654;10.326;2024-02-26T10:04:38;4.60;99.90
16674;DHT22;8450;52.654;10.326;2024-02-26T10:07:07;4.60;99.90
16674;DHT22;8450;52.654;10.326;2024-02-26T10:09:35;4.60;99.90
16674;DHT22;8450;52.654;10.326;2024-02-26T10:12:01;4.70;99.90
16674;DHT22;8450;52.654;10.326;2024-02-26T10:14:26;4.60;99.90
16674;DHT22;8450;52.654;10.326;2024-02-26T10:16:52;4.80;99.90
16674;DHT22;8450;52.654;10.326;2024-02-26T10:19:28;4.80;99.90
16674;DHT22;8450;52.654;10.326;2024-02-26T10:21:58;5.00;99.90
16674;DHT22;8450;52.654;10.326;2024-02-26T10:24:25;5.00;99.90
16674;DHT22;8450;52.654;10.326;2024-02-26T10:26:51;5.10;99.90
16674;DHT22;8450;52.654;10.326;2024-02-26T10:29:18;5.10;99.90
16674;DHT22;8450;52.654;10.326;2024-02-26T10:31:44;5.20;99.90
16674;DHT22;8450;52.654;10.326;2024-02-26T10:34:10;5.30;99.90
16674;DHT22;8450;52.654;10.326;2024-02-26T10:36:36;5.30;99.90
16674;DHT22;8450;52.654;10.326;2024-02-26T10:39:04;5.40;99.90
16674;DHT22;8450;52.654;10.326;2024-02-26T10:41:30;5.50;99.90
16674;DHT22;8450;52.654;10.326;2024-02-26T10:43:58;5.60;99.90
16674;DHT22;8450;52.654;10.326;2024-02-26T10:46:23;5.60;99.90
16674;DHT22;8450;52.654;10.326;2024-02-26T10:48:51;5.70;99.90
16674;DHT22;8450;52.654;10.326;2024-02-26T10:51:22;5.70;99.90
16674;DHT22;8450;52.654;10.326;2024-02-26T10:53:51;5.70;99.90
16674;DHT22;8450;52.654;10.326;2024-02-26T10:56:20;5.80;99.90
16674;DHT22;8450;52.654;10.326;2024-02-26T10:58:46;5.90;99.90
16674;DHT22;8450;52.654;10.326;2024-02-26T11:01:13;6.00;99.90
16674;DHT22;8450;52.654;10.326;2024-02-26T11:03:38;6.10;99.90
16674;DHT22;8450;52.654;10.326;2024-02-26T11:06:05;6.10;99.90
16674;DHT22;8450;52.654;10.326;2024-02-26T11:08:31;6.20;99.90
16674;DHT22;8450;52.654;10.326;2024-02-26T11:10:58;6.20;99.90
16674;DHT22;8450;52.654;10.326;2024-02-26T11:13:27;6.10;99.90
16674;DHT22;8450;52.654;10.326;2024-02-26T11:15:55;6.20;99.90
16674;DHT22;8450;52.654;10.326;2024-02-26T11:18:23;6.20;99.90
16674;DHT22;8450;52.654;10.326;2024-02-26T11:20:49;6.20;99.90
16674;DHT22;8450;52.654;10.326;2024-02-26T11:23:15;6.20;99.90
16674;DHT22;8450;52.654;10.326;2024-02-26T11:25:41;6.30;99.90
16674;DHT22;8450;52.654;10.326;2024-02-26T11:28:12;6.30;99.90
16674;DHT22;8450;52.654;10.326;2024-02-26T11:30:43;6.40;99.90
16674;DHT22;8450;52.654;10.326;2024-02-26T11:33:10;6.40;99.90
16674;DHT22;8450;52.654;10.326;2024-02-26T11:35:38;6.50;99.90
16674;DHT22;8450;52.654;10.326;2024-02-26T11:38:03;6.50;99.90
16674;DHT22;8450;52.654;10.326;2024-02-26T11:40:31;6.50;99.90
16674;DHT22;8450;52.654;10.326;2024-02-26T11:42:58;6.60;99.90
16674;DHT22;8450;52.654;10.326;2024-02-26T11:48:10;6.60;99.90
16674;DHT22;8450;52.654;10.326;2024-02-26T11:50:40;6.60;99.90
16674;DHT22;8450;52.654;10.326;2024-02-26T11:53:26;6.70;99.90
16674;DHT22;8450;52.654;10.326;2024-02-26T11:58:42;6.70;99.90
16674;DHT22;8450;52.654;10.326;2024-02-26T12:06:54;6.90;99.90
16674;DHT22;8450;52.654;10.326;2024-02-26T12:09:34;6.90;99.90
16674;DHT22;8450;52.654;10.326;2024-02-26T12:12:05;7.00;99.90
16674;DHT22;8450;52.654;10.326;2024-02-26T12:14:33;7.00;99.90
16674;DHT22;8450;52.654;10.326;2024-02-26T12:17:00;7.10;99.90
16674;DHT22;8450;52.654;10.326;2024-02-26T12:19:25;7.20;99.90
16674;DHT22;8450;52.654;10.326;2024-02-26T12:21:53;7.20;99.90
16674;DHT22;8450;52.654;10.326;2024-02-26T12:24:20;7.30;99.90
16674;DHT22;8450;52.654;10.326;2024-02-26T12:26:46;7.40;99.90
16674;DHT22;8450;52.654;10.326;2024-02-26T12:29:12;7.40;99.90
16674;DHT22;8450;52.654;10.326;2024-02-26T12:31:39;7.50;99.90
16674;DHT22;8450;52.654;10.326;2024-02-26T12:34:06;7.50;99.90
16674;DHT22;8450;52.654;10.326;2024-02-26T12:36:33;7.60;99.90
16674;DHT22;8450;52.654;10.326;2024-02-26T12:39:00;7.60;99.90
16674;DHT22;8450;52.654;10.326;2024-02-26T12:41:27;7.70;99.90
16674;DHT22;8450;52.654;10.326;2024-02-26T12:43:54;7.70;99.90
16674;DHT22;8450;52.654;10.326;2024-02-26T12:46:20;7.90;99.90
16674;DHT22;8450;52.654;10.326;2024-02-26T12:48:46;8.00;99.90
16674;DHT22;8450;52.654;10.326;2024-02-26T12:51:14;8.10;99.90
16674;DHT22;8450;52.654;10.326;2024-02-26T12:53:41;8.30;99.90
16674;DHT22;8450;52.654;10.326;2024-02-26T12:56:08;8.30;99.90
16674;DHT22;8450;52.654;10.326;2024-02-26T12:58:34;8.40;99.90
16674;DHT22;8450;52.654;10.326;2024-02-26T13:01:01;8.60;99.90
16674;DHT22;8450;52.654;10.326;2024-02-26T13:03:27;8.70;99.90
16674;DHT22;8450;52.654;10.326;2024-02-26T13:05:53;8.60;99.90
16674;DHT22;8450;52.654;10.326;2024-02-26T13:08:22;8.70;99.90
16674;DHT22;8450;52.654;10.326;2024-02-26T13:10:48;8.80;99.90
16674;DHT22;8450;52.654;10.326;2024-02-26T13:13:16;8.80;99.90
16674;DHT22;8450;52.654;10.326;2024-02-26T13:15:43;8.80;99.90
16674;DHT22;8450;52.654;10.326;2024-02-26T13:18:13;8.80;99.90
16674;DHT22;8450;52.654;10.326;2024-02-26T13:20:39;8.90;99.90
16674;DHT22;8450;52.654;10.326;2024-02-26T13:23:11;8.90;99.90
16674;DHT22;8450;52.654;10.326;2024-02-26T13:25:38;9.00;99.90
16674;DHT22;8450;52.654;10.326;2024-02-26T13:28:15;9.10;99.90
16674;DHT22;8450;52.654;10.326;2024-02-26T13:30:41;9.10;99.90
16674;DHT22;8450;52.654;10.326;2024-02-26T13:33:09;9.00;99.90
16674;DHT22;8450;52.654;10.326;2024-02-26T13:35:34;9.00;99.90
16674;DHT22;8450;52.654;10.326;2024-02-26T13:38:02;8.90;99.90
16674;DHT22;8450;52.654;10.326;2024-02-26T13:40:27;9.10;99.90
16674;DHT22;8450;52.654;10.326;2024-02-26T13:42:54;9.00;99.90
16674;DHT22;8450;52.654;10.326;2024-02-26T13:45:20;9.00;99.90
16674;DHT22;8450;52.654;10.326;2024-02-26T13:47:45;9.00;99.90
16674;DHT22;8450;52.654;10.326;2024-02-26T13:50:11;9.00;99.90
16674;DHT22;8450;52.654;10.326;2024-02-26T13:52:36;8.90;99.90
16674;DHT22;8450;52.654;10.326;2024-02-26T13:55:02;8.90;99.90
16674;DHT22;8450;52.654;10.326;2024-02-26T13:57:28;8.90;99.90
16674;DHT22;8450;52.654;10.326;2024-02-26T13:59:55;8.90;99.90
16674;DHT22;8450;52.654;10.326;2024-02-26T14:02:21;8.90;99.90
16674;DHT22;8450;52.654;10.326;2024-02-26T14:04:46;8.90;99.90
16674;DHT22;8450;52.654;10.326;2024-02-26T14:07:12;8.90;99.90
16674;DHT22;8450;52.654;10.326;2024-02-26T14:09:38;8.90;99.90
16674;DHT22;8450;52.654;10.326;2024-02-26T14:12:04;8.80;99.90
16674;DHT22;8450;52.654;10.326;2024-02-26T14:14:30;8.80;99.90
16674;DHT22;8450;52.654;10.326;2024-02-26T14:16:58;8.80;99.90
16674;DHT22;8450;52.654;10.326;2024-02-26T14:19:24;8.80;99.90
16674;DHT22;8450;52.654;10.326;2024-02-26T14:21:49;8.80;99.90
16674;DHT22;8450;52.654;10.326;2024-02-26T14:24:15;8.80;99.90
16674;DHT22;8450;52.654;10.326;2024-02-26T14:26:41;8.80;99.90
16674;DHT22;8450;52.654;10.326;2024-02-26T14:29:07;8.80;99.90
16674;DHT22;8450;52.654;10.326;2024-02-26T14:31:32;8.70;99.90
16674;DHT22;8450;52.654;10.326;2024-02-26T14:33:59;8.70;99.90
16674;DHT22;8450;52.654;10.326;2024-02-26T14:36:24;8.70;99.90
16674;DHT22;8450;52.654;10.326;2024-02-26T14:38:50;8.60;99.90
16674;DHT22;8450;52.654;10.326;2024-02-26T14:41:16;8.70;99.90
16674;DHT22;8450;52.654;10.326;2024-02-26T14:43:41;8.70;99.90
16674;DHT22;8450;52.654;10.326;2024-02-26T14:46:07;8.70;99.90
16674;DHT22;8450;52.654;10.326;2024-02-26T14:48:33;8.60;99.90
16674;DHT22;8450;52.654;10.326;2024-02-26T14:50:59;8.60;99.90
16674;DHT22;8450;52.654;10.326;2024-02-26T14:53:25;8.60;99.90
16674;DHT22;8450;52.654;10.326;2024-02-26T14:55:52;8.50;99.90
16674;DHT22;8450;52.654;10.326;2024-02-26T14:58:17;8.50;99.90
16674;DHT22;8450;52.654;10.326;2024-02-26T15:00:43;8.50;99.90
16674;DHT22;8450;52.654;10.326;2024-02-26T15:03:08;8.40;99.90
16674;DHT22;8450;52.654;10.326;2024-02-26T15:05:34;8.40;99.90
16674;DHT22;8450;52.654;10.326;2024-02-26T15:08:00;8.40;99.90
16674;DHT22;8450;52.654;10.326;2024-02-26T15:10:26;8.30;99.90
16674;DHT22;8450;52.654;10.326;2024-02-26T15:12:52;8.30;99.90
16674;DHT22;8450;52.654;10.326;2024-02-26T15:15:22;8.30;99.90
16674;DHT22;8450;52.654;10.326;2024-02-26T15:17:47;8.30;99.90
16674;DHT22;8450;52.654;10.326;2024-02-26T15:20:14;8.30;99.90
16674;DHT22;8450;52.654;10.326;2024-02-26T15:22:40;8.20;99.90
16674;DHT22;8450;52.654;10.326;2024-02-26T15:25:07;8.20;99.90
16674;DHT22;8450;52.654;10.326;2024-02-26T15:27:33;8.20;99.90
16674;DHT22;8450;52.654;10.326;2024-02-26T15:29:59;8.20;99.90
16674;DHT22;8450;52.654;10.326;2024-02-26T15:32:26;8.20;99.90
16674;DHT22;8450;52.654;10.326;2024-02-26T15:34:52;8.10;99.90
16674;DHT22;8450;52.654;10.326;2024-02-26T15:37:18;8.10;99.90
16674;DHT22;8450;52.654;10.326;2024-02-26T15:39:44;8.10;99.90
16674;DHT22;8450;52.654;10.326;2024-02-26T15:42:10;8.00;99.90
16674;DHT22;8450;52.654;10.326;2024-02-26T15:44:37;8.00;99.90
16674;DHT22;8450;52.654;10.326;2024-02-26T15:47:03;8.00;99.90
16674;DHT22;8450;52.654;10.326;2024-02-26T15:49:30;7.90;99.90